Terminal Aerodrome Forecast
Issued by NWS Sioux Falls, SD

Home | Current Version | Previous Version | Text Only | Print | Product List | Glossary Off
Versions: 1 2 3 4 5 6 7 8 9 10 11 12 13 14 15 16 17

000
FTUS43 KFSD 211145
TAFFSD
TAF
KFSD 211145Z 2112/2212 14008KT P6SM -SHRA BKN100
      TEMPO 2112/2114 5SM -TSRA BR SCT040 OVC080CB
     FM211500 16009KT P6SM OVC110
     FM211800 20010KT P6SM FEW200
     FM220100 21007KT P6SM SCT060 BKN200
     FM220400 30008KT P6SM SCT050 BKN100
     FM220600 34008KT P6SM SCT200
     FM221100 33006KT P6SM SCT025=

USA.gov is the U.S. government's official web portal to all federal, state and local government web resources and services.